Time;durP1;ratioP1;P1;durP2;ratioP2;P2;SDS_P1;SDS_P2;PMS_P1;PMS_P2;Temp;Humidity;BMP_temperature;BMP_pressure;BME280_temperature;BME280_humidity;BME280_pressure;Samples;Min_cycle;Max_cycle;Signal;HPM_P1;HPM_P2
2021/12/23 00:01:36;;;;;;;21.52;13.98;;;0.90;79.50;;;;;;4956296;28;93057;-75
2021/12/23 00:04:04;;;;;;;20.17;13.45;;;0.90;79.60;;;;;;4972590;28;92537;-75
2021/12/23 00:06:31;;;;;;;24.35;15.32;;;0.90;79.70;;;;;;4955924;28;92526;-76
2021/12/23 00:09:00;;;;;;;22.38;15.18;;;0.80;80.30;;;;;;4955554;28;107984;-75
2021/12/23 00:11:27;;;;;;;23.55;13.93;;;0.90;81.00;;;;;;4957137;28;95473;-75
2021/12/23 00:14:09;;;;;;;24.55;14.05;;;0.90;80.30;;;;;;4957330;28;92504;-75
2021/12/23 00:16:46;;;;;;;22.30;14.52;;;0.90;80.80;;;;;;4957954;28;92451;-75
2021/12/23 00:24:41;;;;;;;24.73;14.25;;;0.90;80.30;;;;;;4956581;28;92376;-76
2021/12/23 00:27:09;;;;;;;21.23;14.38;;;0.90;80.20;;;;;;4957315;28;91744;-76
2021/12/23 00:29:38;;;;;;;22.08;13.95;;;0.90;79.70;;;;;;4939386;28;94149;-75
2021/12/23 00:32:07;;;;;;;19.67;13.98;;;0.90;79.80;;;;;;4956776;28;92798;-75
2021/12/23 00:34:38;;;;;;;22.83;13.73;;;0.90;79.60;;;;;;4970290;28;96235;-75
2021/12/23 00:37:10;;;;;;;18.70;13.07;;;0.90;79.70;;;;;;4957279;28;92542;-71
2021/12/23 00:39:37;;;;;;;20.30;14.38;;;0.90;80.00;;;;;;4956290;28;95144;-71
2021/12/23 00:42:07;;;;;;;20.38;13.75;;;0.90;80.40;;;;;;4956806;28;92793;-70
2021/12/23 00:44:36;;;;;;;21.17;13.50;;;0.90;79.80;;;;;;4956802;28;92513;-76
2021/12/23 00:47:04;;;;;;;19.88;14.57;;;1.00;80.10;;;;;;4955730;28;92583;-76
2021/12/23 00:49:31;;;;;;;21.13;14.80;;;0.90;79.90;;;;;;4956071;28;107987;-71
2021/12/23 00:52:01;;;;;;;17.45;12.88;;;1.00;80.30;;;;;;4957099;28;93697;-71
2021/12/23 00:54:28;;;;;;;18.63;12.15;;;1.00;79.90;;;;;;4971849;28;92532;-71
2021/12/23 00:56:55;;;;;;;20.85;14.27;;;0.90;80.50;;;;;;4956370;28;92545;-71
2021/12/23 00:59:22;;;;;;;21.05;14.00;;;1.00;80.00;;;;;;4955201;28;95439;-71
2021/12/23 01:01:49;;;;;;;20.10;13.43;;;1.00;80.00;;;;;;4956098;28;95337;-71
2021/12/23 01:04:18;;;;;;;21.15;14.60;;;1.00;80.20;;;;;;4955227;28;93001;-71
2021/12/23 01:06:45;;;;;;;18.75;13.23;;;1.10;80.50;;;;;;4956263;28;92420;-71
2021/12/23 01:09:12;;;;;;;19.05;12.20;;;1.10;79.60;;;;;;4956463;28;93004;-76
2021/12/23 01:11:39;;;;;;;21.48;13.52;;;1.10;79.60;;;;;;4956155;28;92397;-76
2021/12/23 01:19:26;;;;;;;19.67;13.25;;;1.20;79.10;;;;;;4956059;28;92660;-76
2021/12/23 01:21:53;;;;;;;20.60;14.00;;;1.20;79.00;;;;;;4956049;28;93045;-71
2021/12/23 01:24:26;;;;;;;21.50;12.93;;;1.30;78.70;;;;;;4954646;28;94862;-71
2021/12/23 01:26:53;;;;;;;21.60;13.80;;;1.30;78.60;;;;;;4956340;28;92879;-70
2021/12/23 01:29:20;;;;;;;18.83;13.65;;;1.40;78.00;;;;;;4956267;28;93032;-71
2021/12/23 01:31:47;;;;;;;19.40;13.05;;;1.40;77.80;;;;;;4970435;28;98106;-75
2021/12/23 01:34:14;;;;;;;20.00;13.10;;;1.40;78.20;;;;;;4956207;28;92368;-75
2021/12/23 01:36:40;;;;;;;19.23;13.38;;;1.50;77.80;;;;;;4956001;28;92472;-75
2021/12/23 01:39:07;;;;;;;17.63;12.95;;;1.50;77.60;;;;;;4954777;28;93063;-75
2021/12/23 01:41:35;;;;;;;19.70;13.85;;;1.50;77.60;;;;;;4955800;28;107088;-75
2021/12/23 01:44:04;;;;;;;17.10;12.50;;;1.60;77.10;;;;;;4955719;28;92369;-75
2021/12/23 01:46:31;;;;;;;20.00;13.63;;;1.60;76.90;;;;;;4955743;28;92486;-75
2021/12/23 01:48:58;;;;;;;17.60;12.40;;;1.70;76.30;;;;;;4937133;28;94921;-75
2021/12/23 01:51:25;;;;;;;18.50;12.77;;;1.70;76.30;;;;;;4955467;28;100077;-75
2021/12/23 01:53:53;;;;;;;19.40;13.05;;;1.80;76.30;;;;;;4954690;28;92489;-75
2021/12/23 01:56:20;;;;;;;18.98;13.32;;;1.80;76.10;;;;;;4954772;28;92787;-75
2021/12/23 01:58:47;;;;;;;18.45;13.25;;;1.80;75.40;;;;;;4955264;28;93250;-75
2021/12/23 02:01:14;;;;;;;18.58;12.80;;;1.80;75.20;;;;;;4970885;28;95767;-75
2021/12/23 02:03:41;;;;;;;20.50;13.73;;;1.80;75.90;;;;;;4955859;28;92360;-75
2021/12/23 02:06:09;;;;;;;18.42;13.02;;;1.80;75.90;;;;;;4956191;28;91706;-75
2021/12/23 02:08:38;;;;;;;19.92;13.82;;;1.80;75.50;;;;;;4937957;28;95941;-71
2021/12/23 02:11:08;;;;;;;18.63;13.05;;;1.80;75.20;;;;;;4955330;28;92858;-71
2021/12/23 02:13:35;;;;;;;21.23;14.65;;;1.70;75.40;;;;;;4969253;28;94877;-71
2021/12/23 02:16:04;;;;;;;22.60;15.65;;;1.70;75.90;;;;;;4970459;28;92486;-70
2021/12/23 02:18:32;;;;;;;21.15;14.95;;;1.70;76.10;;;;;;4954954;28;101019;-71
2021/12/23 02:20:59;;;;;;;20.83;13.98;;;1.50;76.70;;;;;;4955198;28;92865;-70
2021/12/23 02:23:26;;;;;;;21.73;13.68;;;1.50;78.40;;;;;;4955014;28;92896;-70
2021/12/23 02:25:53;;;;;;;22.73;15.10;;;1.50;78.80;;;;;;4955220;28;92455;-75
2021/12/23 02:28:22;;;;;;;20.83;13.13;;;1.50;78.80;;;;;;4973790;28;94303;-75
2021/12/23 02:30:51;;;;;;;19.02;12.35;;;1.50;78.60;;;;;;4958822;28;92839;-75
2021/12/23 02:33:25;;;;;;;19.83;12.63;;;1.50;79.30;;;;;;4957966;28;93030;-75
2021/12/23 02:35:57;;;;;;;18.23;13.70;;;1.50;79.10;;;;;;4958959;28;92454;-75
2021/12/23 02:38:24;;;;;;;21.13;13.95;;;1.40;79.40;;;;;;4957425;28;95597;-75
2021/12/23 02:40:52;;;;;;;20.33;14.38;;;1.50;79.10;;;;;;4958303;28;95189;-70
2021/12/23 02:43:26;;;;;;;21.38;13.18;;;1.50;78.60;;;;;;4958508;28;92458;-70
2021/12/23 02:45:56;;;;;;;21.35;13.32;;;1.50;78.30;;;;;;4958718;28;92922;-71
2021/12/23 02:48:30;;;;;;;24.33;14.77;;;1.50;78.70;;;;;;4958294;28;93811;-71
2021/12/23 02:50:58;;;;;;;18.05;13.07;;;1.50;78.80;;;;;;4958086;28;95975;-70
2021/12/23 02:53:25;;;;;;;22.15;14.77;;;1.50;78.40;;;;;;4958480;28;92508;-70
2021/12/23 02:55:57;;;;;;;18.98;13.35;;;1.60;78.20;;;;;;4941187;28;91824;-71
2021/12/23 02:58:24;;;;;;;18.02;13.43;;;1.60;77.90;;;;;;4958403;28;92973;-70
2021/12/23 03:00:54;;;;;;;17.05;12.57;;;1.60;77.90;;;;;;4957983;28;93028;-70
2021/12/23 03:03:21;;;;;;;19.48;14.25;;;1.70;77.50;;;;;;4957440;28;95071;-70
2021/12/23 03:05:50;;;;;;;20.60;12.93;;;1.70;77.10;;;;;;4956734;28;106561;-70
2021/12/23 03:08:46;;;;;;;18.77;13.10;;;1.70;77.20;;;;;;4958053;28;93796;-71
2021/12/23 03:11:17;;;;;;;19.70;13.50;;;1.70;77.40;;;;;;4956472;28;95779;-71
2021/12/23 03:13:45;;;;;;;18.08;13.43;;;1.80;77.40;;;;;;4973359;28;92600;-70
2021/12/23 03:16:13;;;;;;;16.83;12.73;;;1.80;77.00;;;;;;4958083;28;93012;-71
2021/12/23 03:18:41;;;;;;;21.75;13.60;;;1.80;77.00;;;;;;4957787;28;93223;-71
2021/12/23 03:21:08;;;;;;;24.13;14.05;;;1.90;77.00;;;;;;4956688;28;97254;-71
2021/12/23 03:23:35;;;;;;;17.60;13.05;;;1.90;77.50;;;;;;4939755;28;92571;-70
2021/12/23 03:26:03;;;;;;;19.75;12.55;;;1.90;76.90;;;;;;4956717;28;92463;-70
2021/12/23 03:28:30;;;;;;;18.92;12.60;;;1.90;77.00;;;;;;4955471;28;95386;-71
2021/12/23 03:30:58;;;;;;;21.58;14.43;;;1.90;76.70;;;;;;4956190;28;97141;-70
2021/12/23 03:33:26;;;;;;;18.55;12.85;;;1.90;77.60;;;;;;4957167;28;93214;-75
2021/12/23 03:35:54;;;;;;;19.83;14.30;;;1.90;77.40;;;;;;4955113;28;103241;-75
2021/12/23 03:38:22;;;;;;;19.80;13.20;;;1.90;77.40;;;;;;4970614;28;94164;-75
2021/12/23 03:40:50;;;;;;;18.20;13.15;;;1.90;77.60;;;;;;4955504;28;93962;-75
2021/12/23 03:43:18;;;;;;;18.90;13.77;;;1.90;78.00;;;;;;4955237;28;92468;-75
2021/12/23 03:45:46;;;;;;;18.95;13.35;;;1.80;77.70;;;;;;4956725;28;91697;-75
2021/12/23 03:48:15;;;;;;;14.98;11.32;;;1.80;79.00;;;;;;4956195;28;93124;-75
2021/12/23 03:50:43;;;;;;;15.70;10.75;;;1.80;78.90;;;;;;4938708;28;94042;-75
2021/12/23 03:53:10;;;;;;;15.88;11.15;;;1.80;78.10;;;;;;4953886;28;94907;-75
2021/12/23 03:55:37;;;;;;;16.85;12.30;;;1.70;77.30;;;;;;4956564;28;92343;-75
2021/12/23 03:58:04;;;;;;;18.33;13.60;;;1.80;77.90;;;;;;4954947;28;92973;-75
2021/12/23 04:00:32;;;;;;;19.90;13.48;;;1.80;77.10;;;;;;4969645;28;94217;-75
2021/12/23 04:02:59;;;;;;;16.27;11.90;;;1.80;77.90;;;;;;4935567;28;92499;-75
2021/12/23 04:05:26;;;;;;;20.50;13.45;;;1.90;77.40;;;;;;4936473;28;92462;-75
2021/12/23 04:07:53;;;;;;;16.25;11.50;;;1.90;77.90;;;;;;4936743;28;94151;-75
2021/12/23 04:10:21;;;;;;;18.48;12.93;;;1.90;77.40;;;;;;4935553;28;93534;-75
2021/12/23 04:12:49;;;;;;;21.52;13.07;;;1.90;77.90;;;;;;4935473;28;92515;-75
2021/12/23 04:15:17;;;;;;;18.45;12.13;;;2.00;77.10;;;;;;4936518;28;92875;-75
2021/12/23 04:17:44;;;;;;;17.52;12.55;;;2.00;76.60;;;;;;4935236;28;95504;-70
2021/12/23 04:20:20;;;;;;;19.67;12.98;;;2.00;76.80;;;;;;4934953;28;95138;-70
2021/12/23 04:22:53;;;;;;;21.73;13.43;;;2.00;77.20;;;;;;4936613;28;93107;-70
2021/12/23 04:25:23;;;;;;;20.60;13.93;;;2.00;77.30;;;;;;4894140;28;1193444;-70
2021/12/23 04:27:52;;;;;;;20.15;12.80;;;2.00;77.10;;;;;;4937435;28;93212;-70
2021/12/23 04:30:20;;;;;;;20.65;13.90;;;2.10;77.00;;;;;;4937087;28;92915;-70
2021/12/23 04:32:47;;;;;;;19.58;13.48;;;2.10;77.90;;;;;;4936479;28;92434;-71
2021/12/23 04:35:14;;;;;;;18.63;12.55;;;2.10;76.40;;;;;;4936285;28;91757;-70
2021/12/23 04:37:41;;;;;;;21.88;13.73;;;2.10;76.80;;;;;;4935944;28;95767;-70
2021/12/23 04:40:10;;;;;;;19.80;12.90;;;2.10;76.80;;;;;;4935886;28;93187;-71
2021/12/23 04:42:38;;;;;;;19.73;13.55;;;2.10;76.80;;;;;;4935781;28;101178;-70
2021/12/23 04:45:08;;;;;;;18.85;12.60;;;2.10;76.40;;;;;;4937554;28;93416;-70
2021/12/23 04:47:35;;;;;;;19.95;13.18;;;2.10;76.00;;;;;;4920017;28;94401;-74
2021/12/23 04:50:04;;;;;;;17.67;12.55;;;2.10;75.70;;;;;;4934779;28;94107;-74
2021/12/23 04:52:31;;;;;;;20.40;12.38;;;2.20;76.10;;;;;;4935521;28;92441;-74
2021/12/23 04:54:58;;;;;;;21.48;13.93;;;2.20;75.40;;;;;;4936087;28;93025;-74
2021/12/23 04:57:25;;;;;;;18.20;12.98;;;2.10;75.80;;;;;;4937238;28;93098;-74
2021/12/23 04:59:52;;;;;;;18.15;13.00;;;2.20;75.80;;;;;;4937328;28;92874;-74
2021/12/23 05:02:19;;;;;;;17.85;13.30;;;2.20;75.70;;;;;;4936834;28;92540;-74
2021/12/23 05:04:50;;;;;;;19.55;14.38;;;2.20;75.80;;;;;;4935945;28;92465;-74
2021/12/23 05:07:20;;;;;;;18.67;13.70;;;2.20;75.40;;;;;;4935904;28;95854;-74
2021/12/23 05:09:47;;;;;;;21.10;12.80;;;2.20;75.30;;;;;;4937194;28;95819;-70
2021/12/23 05:12:14;;;;;;;18.23;13.15;;;2.20;75.30;;;;;;4936681;28;92378;-70
2021/12/23 05:14:41;;;;;;;18.10;13.40;;;2.20;75.50;;;;;;4936879;28;92430;-70
2021/12/23 05:17:08;;;;;;;20.20;14.27;;;2.20;75.80;;;;;;4936507;28;93132;-70
2021/12/23 05:19:35;;;;;;;21.88;14.20;;;2.30;75.60;;;;;;4935187;28;98971;-70
2021/12/23 05:22:02;;;;;;;18.52;13.40;;;2.20;75.50;;;;;;4936828;28;92492;-70
2021/12/23 05:24:29;;;;;;;20.98;14.23;;;2.20;76.40;;;;;;4936541;28;91721;-70
2021/12/23 05:26:56;;;;;;;18.92;13.73;;;2.30;77.20;;;;;;4935485;28;93590;-74
2021/12/23 05:29:23;;;;;;;19.23;13.75;;;2.30;76.60;;;;;;4935199;28;96884;-70
2021/12/23 05:31:50;;;;;;;18.35;13.25;;;2.30;77.20;;;;;;4934520;28;94884;-74
2021/12/23 05:34:17;;;;;;;18.40;13.73;;;2.30;76.90;;;;;;4936578;28;92432;-70
2021/12/23 05:36:44;;;;;;;18.88;14.10;;;2.30;76.90;;;;;;4936205;28;93142;-70
2021/12/23 05:39:11;;;;;;;20.40;13.65;;;2.30;76.10;;;;;;4934917;28;94262;-69
2021/12/23 05:41:39;;;;;;;19.85;13.27;;;2.30;76.90;;;;;;4936085;28;101516;-70
2021/12/23 05:44:05;;;;;;;21.23;14.50;;;2.30;77.00;;;;;;4935341;28;92497;-70
2021/12/23 05:46:33;;;;;;;19.30;13.52;;;2.30;76.90;;;;;;4935147;28;94150;-70
2021/12/23 05:49:00;;;;;;;19.15;13.82;;;2.40;76.70;;;;;;4936855;28;92777;-70
2021/12/23 05:51:26;;;;;;;19.15;13.70;;;2.40;76.60;;;;;;4936082;28;92424;-70
2021/12/23 05:53:53;;;;;;;20.25;13.75;;;2.40;76.70;;;;;;4936470;28;92471;-74
2021/12/23 05:56:25;;;;;;;19.63;13.48;;;2.50;76.00;;;;;;4934867;28;95505;-74
2021/12/23 05:58:52;;;;;;;18.23;13.43;;;2.40;76.10;;;;;;4935864;28;94053;-74
2021/12/23 06:01:19;;;;;;;18.35;12.82;;;2.50;76.30;;;;;;4934499;28;92650;-70
2021/12/23 06:03:46;;;;;;;19.65;12.77;;;2.40;77.20;;;;;;4935176;28;92576;-70
2021/12/23 06:06:16;;;;;;;20.83;13.38;;;2.40;76.30;;;;;;4935487;28;101957;-73
2021/12/23 06:08:44;;;;;;;20.55;13.80;;;2.50;76.70;;;;;;4934543;28;94301;-74
2021/12/23 06:11:10;;;;;;;19.88;13.98;;;2.40;75.90;;;;;;4918678;28;92501;-73
2021/12/23 06:13:38;;;;;;;19.33;14.68;;;2.50;75.70;;;;;;4935379;28;92969;-73
2021/12/23 06:16:06;;;;;;;18.83;12.98;;;2.50;76.40;;;;;;4935965;28;98152;-75
2021/12/23 06:18:33;;;;;;;18.65;13.18;;;2.50;75.70;;;;;;4935704;28;92848;-74
2021/12/23 06:21:00;;;;;;;22.05;15.57;;;2.50;75.40;;;;;;4934878;28;94851;-74
2021/12/23 06:23:27;;;;;;;21.60;14.30;;;2.50;75.40;;;;;;4935754;28;92465;-74
2021/12/23 06:25:54;;;;;;;19.83;13.45;;;2.50;75.50;;;;;;4935512;28;93147;-74
2021/12/23 06:28:21;;;;;;;21.65;14.27;;;2.50;75.40;;;;;;4935717;28;92754;-74
2021/12/23 06:30:48;;;;;;;22.90;15.57;;;2.50;75.60;;;;;;4934811;28;93001;-74
2021/12/23 06:33:16;;;;;;;21.00;13.75;;;2.60;75.00;;;;;;4936220;28;92411;-74
2021/12/23 06:35:44;;;;;;;21.85;13.70;;;2.60;74.80;;;;;;4935530;28;95387;-73
2021/12/23 06:38:12;;;;;;;20.65;13.18;;;2.60;75.40;;;;;;4934660;28;96275;-74
2021/12/23 06:40:40;;;;;;;17.58;11.82;;;2.60;75.40;;;;;;4934308;28;92496;-74
2021/12/23 06:43:08;;;;;;;20.02;13.30;;;2.60;75.20;;;;;;4918380;28;93390;-74
2021/12/23 06:45:35;;;;;;;22.98;14.52;;;2.60;74.90;;;;;;4934184;28;95691;-73
2021/12/23 06:48:02;;;;;;;21.92;14.27;;;2.60;74.70;;;;;;4935619;28;95322;-73
2021/12/23 06:50:29;;;;;;;22.42;14.65;;;2.60;74.80;;;;;;4935739;28;92979;-73
2021/12/23 06:52:58;;;;;;;20.33;13.63;;;2.60;75.60;;;;;;4935526;28;92495;-74
2021/12/23 06:55:25;;;;;;;20.20;14.60;;;2.60;75.60;;;;;;4933776;28;94558;-73
2021/12/23 06:57:56;;;;;;;22.40;14.65;;;2.70;75.30;;;;;;4935608;28;92946;-73
2021/12/23 07:00:25;;;;;;;20.02;13.40;;;2.70;74.90;;;;;;4935932;28;92554;-73
2021/12/23 07:02:53;;;;;;;21.30;15.48;;;2.70;74.90;;;;;;4936024;28;92182;-73
2021/12/23 07:05:21;;;;;;;19.25;14.02;;;2.70;75.60;;;;;;4933902;28;103281;-73
2021/12/23 07:07:55;;;;;;;18.73;13.38;;;2.80;74.80;;;;;;4935157;28;92947;-73
2021/12/23 07:10:25;;;;;;;22.63;14.07;;;2.80;75.10;;;;;;4934216;28;94889;-70
2021/12/23 07:12:54;;;;;;;20.20;13.07;;;2.80;75.40;;;;;;4935209;28;92536;-70
2021/12/23 07:15:23;;;;;;;20.83;13.70;;;2.80;76.70;;;;;;4938433;28;93059;-70
2021/12/23 07:17:52;;;;;;;21.42;16.33;;;2.80;75.40;;;;;;4936818;28;94218;-70
2021/12/23 07:20:20;;;;;;;22.13;14.40;;;2.80;75.80;;;;;;4937999;28;92471;-70
2021/12/23 07:22:47;;;;;;;21.05;14.93;;;2.80;75.30;;;;;;4938276;28;92451;-70
2021/12/23 07:25:15;;;;;;;24.88;16.33;;;2.80;74.90;;;;;;4937740;28;93056;-70
2021/12/23 07:27:45;;;;;;;22.60;15.07;;;2.80;74.90;;;;;;4938807;28;94882;-70
2021/12/23 07:30:15;;;;;;;24.33;16.10;;;2.80;74.50;;;;;;4938491;28;92455;-70
2021/12/23 07:32:42;;;;;;;23.70;15.07;;;2.80;75.30;;;;;;4938341;28;92822;-70
2021/12/23 07:35:11;;;;;;;22.85;15.32;;;2.80;74.70;;;;;;4936965;28;95431;-70
2021/12/23 07:37:41;;;;;;;23.63;15.93;;;2.80;75.30;;;;;;4937990;28;95510;-70
2021/12/23 07:40:13;;;;;;;22.95;15.25;;;2.80;75.20;;;;;;4936540;28;102390;-70
2021/12/23 07:42:51;;;;;;;22.20;15.02;;;2.80;75.30;;;;;;4937171;28;92749;-70
2021/12/23 07:45:27;;;;;;;25.10;16.77;;;2.80;75.20;;;;;;4936742;28;94288;-70
2021/12/23 07:47:54;;;;;;;22.40;15.32;;;2.80;74.90;;;;;;4937840;28;94290;-70
2021/12/23 07:50:22;;;;;;;25.98;16.42;;;2.80;75.70;;;;;;4936856;28;92451;-70
2021/12/23 07:52:49;;;;;;;23.63;14.68;;;2.90;75.40;;;;;;4937238;28;91687;-70
2021/12/23 07:55:16;;;;;;;23.63;14.68;;;2.90;75.00;;;;;;4937637;28;106257;-70
2021/12/23 07:57:43;;;;;;;22.95;15.10;;;2.90;74.90;;;;;;4937383;28;92349;-69
2021/12/23 08:00:13;;;;;;;26.35;16.58;;;2.90;74.80;;;;;;4935463;28;94871;-70
2021/12/23 08:02:40;;;;;;;24.63;16.70;;;2.90;74.40;;;;;;4936447;28;92473;-70
2021/12/23 08:05:08;;;;;;;24.98;16.08;;;2.90;75.20;;;;;;4936503;28;93097;-70
2021/12/23 08:07:35;;;;;;;23.38;15.73;;;2.90;74.50;;;;;;4936153;28;95735;-70
2021/12/23 08:10:03;;;;;;;24.90;16.58;;;2.90;74.40;;;;;;4937946;28;92418;-70
2021/12/23 08:12:30;;;;;;;25.77;15.95;;;2.90;75.40;;;;;;4936381;28;92482;-70
2021/12/23 08:14:57;;;;;;;25.77;17.02;;;2.90;75.30;;;;;;4937654;28;93051;-70
2021/12/23 08:17:33;;;;;;;27.08;16.95;;;2.90;75.30;;;;;;4936227;28;94014;-70
2021/12/23 08:20:00;;;;;;;25.52;18.02;;;2.90;75.40;;;;;;4937455;28;92486;-70
2021/12/23 08:22:27;;;;;;;28.02;18.60;;;2.90;75.70;;;;;;4936202;28;95388;-69
2021/12/23 08:24:54;;;;;;;26.27;17.20;;;2.90;75.40;;;;;;4934426;28;95458;-70
2021/12/23 08:27:25;;;;;;;29.25;17.90;;;2.90;74.60;;;;;;4937509;28;95243;-70
2021/12/23 08:29:53;;;;;;;28.45;18.15;;;2.90;75.60;;;;;;4937406;28;92417;-70
2021/12/23 08:32:21;;;;;;;26.92;17.50;;;3.00;75.00;;;;;;4936198;28;92480;-69
2021/12/23 08:34:48;;;;;;;29.50;18.45;;;3.00;75.50;;;;;;4935704;28;93223;-69
2021/12/23 08:37:15;;;;;;;25.88;17.38;;;3.00;75.30;;;;;;4937423;28;93032;-70
2021/12/23 08:39:43;;;;;;;26.35;17.30;;;3.00;75.30;;;;;;4937176;28;92437;-70
2021/12/23 08:42:11;;;;;;;28.52;16.95;;;3.00;75.50;;;;;;4937564;28;91610;-70
2021/12/23 08:44:40;;;;;;;29.02;19.80;;;3.00;74.90;;;;;;4937101;28;92553;-70
2021/12/23 08:47:09;;;;;;;28.67;19.75;;;3.00;74.90;;;;;;4936957;28;92962;-70
2021/12/23 08:49:36;;;;;;;29.25;18.88;;;3.10;75.70;;;;;;4935790;28;101435;-70
2021/12/23 08:52:04;;;;;;;31.05;19.48;;;3.10;75.40;;;;;;4936963;28;92455;-69
2021/12/23 08:54:31;;;;;;;32.63;21.42;;;3.10;75.00;;;;;;4936234;28;93090;-72
2021/12/23 08:56:58;;;;;;;32.50;20.38;;;3.20;74.80;;;;;;4937338;28;92828;-70
2021/12/23 08:59:26;;;;;;;30.55;22.70;;;3.20;74.30;;;;;;4937080;28;92460;-70
2021/12/23 09:01:55;;;;;;;32.53;21.63;;;3.20;74.70;;;;;;4935542;28;92533;-70
2021/12/23 09:04:23;;;;;;;32.17;20.08;;;3.20;74.60;;;;;;4936584;28;93193;-69
2021/12/23 09:06:50;;;;;;;29.67;18.50;;;3.30;74.10;;;;;;4936877;28;92809;-70
2021/12/23 09:09:18;;;;;;;32.75;21.38;;;3.30;74.30;;;;;;4935588;28;92850;-69
2021/12/23 09:11:46;;;;;;;28.67;19.50;;;3.30;74.10;;;;;;4935955;28;92777;-72
2021/12/23 09:14:13;;;;;;;27.38;18.73;;;3.30;73.80;;;;;;4935985;28;95506;-72
2021/12/23 09:16:40;;;;;;;29.52;20.08;;;3.30;74.10;;;;;;4937419;28;95280;-72
2021/12/23 09:19:09;;;;;;;27.25;18.30;;;3.40;74.50;;;;;;4937406;28;92450;-72
2021/12/23 09:21:36;;;;;;;30.77;19.73;;;3.40;74.10;;;;;;4937212;28;92464;-72
2021/12/23 09:24:04;;;;;;;27.77;18.25;;;3.40;75.00;;;;;;4936518;28;101071;-72
2021/12/23 09:26:36;;;;;;;31.67;19.85;;;3.40;74.90;;;;;;4935946;28;92918;-72
2021/12/23 09:29:14;;;;;;;33.45;21.08;;;3.40;74.60;;;;;;4935823;28;92416;-72
2021/12/23 09:34:26;;;;;;;29.60;19.40;;;3.40;75.40;;;;;;4938920;28;93064;-72
2021/12/23 09:36:53;;;;;;;31.88;19.77;;;3.50;74.90;;;;;;4936337;28;92880;-72
2021/12/23 09:39:22;;;;;;;33.33;20.75;;;3.50;74.80;;;;;;4935843;28;94835;-72
2021/12/23 09:41:49;;;;;;;33.58;20.88;;;3.50;75.90;;;;;;4936799;28;92469;-72
2021/12/23 09:44:16;;;;;;;30.63;20.00;;;3.50;75.20;;;;;;4935657;28;92992;-72
2021/12/23 09:46:43;;;;;;;31.02;19.92;;;3.50;75.40;;;;;;4937211;28;92877;-72
2021/12/23 09:49:10;;;;;;;35.22;20.33;;;3.50;76.10;;;;;;4919882;28;92374;-72
2021/12/23 09:51:38;;;;;;;36.30;22.23;;;3.50;75.50;;;;;;4935469;28;92436;-72
2021/12/23 09:54:08;;;;;;;34.25;21.83;;;3.60;74.90;;;;;;4935654;28;93059;-72
2021/12/23 09:56:36;;;;;;;32.13;19.70;;;3.60;75.40;;;;;;4935549;28;94735;-71
2021/12/23 09:59:06;;;;;;;34.13;21.38;;;3.60;76.10;;;;;;4935925;28;92483;-72
2021/12/23 10:01:35;;;;;;;34.90;23.02;;;3.60;76.40;;;;;;4936902;28;92406;-71
2021/12/23 10:04:03;;;;;;;36.78;22.38;;;3.60;76.30;;;;;;4933483;28;108486;-71
2021/12/23 10:06:30;;;;;;;37.00;23.73;;;3.60;76.70;;;;;;4935948;28;95760;-71
2021/12/23 10:08:58;;;;;;;38.38;23.00;;;3.60;77.50;;;;;;4935036;28;92353;-72
2021/12/23 10:31:21;;;;;;;35.53;21.50;;;3.80;76.90;;;;;;4934844;28;94841;-73
2021/12/23 10:37:05;;;;;;;39.40;23.15;;;3.80;77.40;;;;;;4936124;28;92869;-73
2021/12/23 10:39:24;;;;;;;40.80;24.48;;;3.90;77.00;;;;;;4936355;28;92902;-73
2021/12/23 10:42:08;;;;;;;43.72;26.10;;;3.90;76.70;;;;;;4934779;28;92503;-73
2021/12/23 10:44:36;;;;;;;39.72;23.02;;;4.00;76.60;;;;;;4951244;28;92463;-73
2021/12/23 10:47:03;;;;;;;38.30;23.63;;;4.00;76.30;;;;;;4936196;28;95889;-74
2021/12/23 10:49:51;;;;;;;38.47;24.10;;;4.00;76.80;;;;;;4939149;28;92793;-73
2021/12/23 10:52:25;;;;;;;36.35;23.58;;;4.00;76.80;;;;;;4939978;28;92381;-73
2021/12/23 11:00:25;;;;;;;38.75;22.75;;;4.10;76.50;;;;;;4937955;28;96595;-73
2021/12/23 11:03:22;;;;;;;42.13;25.35;;;4.20;76.60;;;;;;4939914;28;92453;-73
2021/12/23 11:42:01;;;;;;;41.60;23.23;;;4.10;77.60;;;;;;4936933;28;94296;-71
2021/12/23 11:44:31;;;;;;;44.45;25.33;;;4.10;77.60;;;;;;4938833;28;92877;-71
2021/12/23 11:47:05;;;;;;;42.25;24.50;;;4.10;78.50;;;;;;4938177;28;92512;-71
2021/12/23 11:49:35;;;;;;;43.45;24.50;;;4.10;78.20;;;;;;4938310;28;92455;-72
2021/12/23 11:52:03;;;;;;;44.03;25.75;;;4.10;77.70;;;;;;4935811;28;95518;-72
2021/12/23 11:54:33;;;;;;;43.65;26.27;;;4.10;77.90;;;;;;4937772;28;95155;-71
2021/12/23 11:57:09;;;;;;;45.17;26.05;;;4.10;78.50;;;;;;4937058;28;92544;-71
2021/12/23 11:59:40;;;;;;;44.28;26.55;;;4.20;78.20;;;;;;4937862;28;92885;-72
2021/12/23 12:02:16;;;;;;;48.47;28.05;;;4.20;78.50;;;;;;4937893;28;93070;-71
2021/12/23 12:04:45;;;;;;;46.45;24.98;;;4.20;78.30;;;;;;4938520;28;92874;-72
2021/12/23 12:07:20;;;;;;;41.17;25.13;;;4.10;78.60;;;;;;4938100;28;92856;-71
2021/12/23 12:10:21;;;;;;;43.45;25.33;;;4.10;78.80;;;;;;4938228;28;91660;-71
2021/12/23 12:13:02;;;;;;;45.63;25.55;;;4.10;79.40;;;;;;4929653;28;93126;-71
2021/12/23 12:15:37;;;;;;;44.60;26.17;;;4.10;78.50;;;;;;4936493;28;94985;-71
2021/12/23 12:18:07;;;;;;;45.10;24.58;;;4.10;78.60;;;;;;4936672;28;94757;-71
2021/12/23 12:20:43;;;;;;;45.85;26.25;;;4.10;79.10;;;;;;4937838;28;92447;-71
2021/12/23 12:23:30;;;;;;;45.05;27.63;;;4.10;78.80;;;;;;4938037;28;93024;-71
2021/12/23 12:26:09;;;;;;;44.60;26.92;;;4.10;79.40;;;;;;4935681;28;94218;-71
2021/12/23 12:28:47;;;;;;;45.13;25.90;;;4.10;79.30;;;;;;4937597;28;97540;-71
2021/12/23 12:31:17;;;;;;;44.08;25.83;;;4.10;78.90;;;;;;4952751;28;92971;-71
2021/12/23 12:33:46;;;;;;;44.53;26.50;;;4.10;78.80;;;;;;4937391;28;92459;-71
2021/12/23 12:36:15;;;;;;;42.63;24.83;;;4.10;79.20;;;;;;4937474;28;93272;-71
2021/12/23 12:38:52;;;;;;;42.60;23.92;;;4.10;79.30;;;;;;4937846;28;92471;-71
2021/12/23 12:41:26;;;;;;;45.03;26.70;;;4.10;78.90;;;;;;4937218;28;92541;-71
2021/12/23 12:44:11;;;;;;;40.88;23.58;;;4.20;78.80;;;;;;4936299;28;95474;-71
2021/12/23 12:49:33;;;;;;;40.13;23.52;;;4.20;78.30;;;;;;4937374;28;92565;-72
2021/12/23 12:52:12;;;;;;;41.70;24.52;;;4.20;78.50;;;;;;4937505;28;92405;-71
2021/12/23 12:55:05;;;;;;;44.53;25.52;;;4.30;78.30;;;;;;4936067;28;92413;-71
2021/12/23 12:57:45;;;;;;;42.80;25.70;;;4.30;79.10;;;;;;4929675;28;92784;-71
2021/12/23 13:00:21;;;;;;;41.03;24.30;;;4.30;78.30;;;;;;4937306;28;92508;-71
2021/12/23 13:02:52;;;;;;;41.60;23.52;;;4.30;78.10;;;;;;4936233;28;91683;-72
2021/12/23 13:05:26;;;;;;;46.30;25.60;;;4.20;78.30;;;;;;4937131;28;92987;-71
2021/12/23 13:08:19;;;;;;;44.65;23.92;;;4.30;78.30;;;;;;4926048;28;92959;-71
2021/12/23 13:11:07;;;;;;;43.13;24.02;;;4.30;78.30;;;;;;4933898;28;94889;-71
2021/12/23 13:14:00;;;;;;;40.80;24.27;;;4.30;78.30;;;;;;4928767;28;93703;-71
2021/12/23 13:16:28;;;;;;;40.92;25.63;;;4.30;78.20;;;;;;4936037;28;92926;-71
2021/12/23 13:19:16;;;;;;;42.20;24.13;;;4.30;78.30;;;;;;4936679;28;92964;-71
2021/12/23 13:21:47;;;;;;;40.38;24.23;;;4.40;78.30;;;;;;4936632;28;92519;-71
2021/12/23 13:24:17;;;;;;;41.97;24.92;;;4.30;78.50;;;;;;4936816;28;92369;-71
2021/12/23 13:26:46;;;;;;;44.20;24.38;;;4.30;78.00;;;;;;4936605;28;93167;-71
2021/12/23 13:29:13;;;;;;;43.88;24.67;;;4.30;78.00;;;;;;4937085;28;92854;-71
2021/12/23 13:39:57;;;;;;;44.08;25.02;;;4.50;77.30;;;;;;6081965;23;88327;-78
2021/12/23 13:42:24;;;;;;;41.80;24.40;;;4.50;77.50;;;;;;6008029;23;89161;-77
2021/12/23 13:44:54;;;;;;;40.92;23.83;;;4.50;77.90;;;;;;6005844;23;90588;-78
2021/12/23 13:47:22;;;;;;;42.47;24.35;;;4.40;77.50;;;;;;6079715;23;89328;-70
2021/12/23 13:49:53;;;;;;;42.38;25.17;;;4.50;78.10;;;;;;6078897;23;89335;-67
2021/12/23 13:52:32;;;;;;;41.63;25.05;;;4.50;77.70;;;;;;6079201;23;88434;-68
2021/12/23 13:55:06;;;;;;;42.88;23.63;;;4.50;77.70;;;;;;6053206;23;88688;-67
2021/12/23 13:57:45;;;;;;;43.40;25.10;;;4.40;77.80;;;;;;6080845;23;89163;-69
2021/12/23 14:00:14;;;;;;;39.30;23.05;;;4.40;77.80;;;;;;6079196;23;88962;-67
2021/12/23 14:02:44;;;;;;;38.50;23.73;;;4.40;77.70;;;;;;6079322;23;88829;-68
2021/12/23 14:05:12;;;;;;;43.63;25.77;;;4.40;77.60;;;;;;6078529;23;88640;-67
2021/12/23 14:07:42;;;;;;;42.53;24.95;;;4.40;77.70;;;;;;6042338;23;89774;-67
2021/12/23 14:10:15;;;;;;;44.88;25.00;;;4.30;77.60;;;;;;6033109;23;91166;-68
2021/12/23 14:12:50;;;;;;;43.72;25.42;;;4.40;77.80;;;;;;5508477;23;120793;-69
2021/12/23 14:15:27;;;;;;;45.35;26.20;;;4.30;78.40;;;;;;5167712;23;20091258;-67
2021/12/23 14:18:24;;;;;;;43.72;25.27;;;4.40;78.00;;;;;;5997830;23;89545;-68